Latest Observation

67 Stations

10 Minute Data
as of 5/7/26 2:26 AM PDT
Station Date Time Temp (°F) RH (%) Dew Pt (°F) Wind Spd (mph) Wind Dir (°) Wind Gust (mph) Wind Gst Dir (°) Latest Rain (In) Soil Moist (%) Soil Temp (°F) Daily Rain (In) Daily Min Temp (°F) Daily Max Temp (°F) Daily Max Wind (mph)
Hobart Mills 5/7/26 0220 42.6   4.5 91   7 40.0   2.6 1.5   0.5 W | 264 2.6   0.4 W | 278 0.00 - 32.0   0.0 0.03 42.4   8.1 69.6   23.7 8.2   2.2
Prosser Dam 5/7/26 0220 41.8   2.1 95   2 40.6   1.5 0.3   2.1 SSE | 155 1.9   2.2 S | 174 0.00 24.4   0.8 51.6   2.3 0.00 41.6   2.6 44.7   2.9 4.1   0.0
West Incline Village 5/7/26 0220 50.2   5.8 72   10 41.7   2.2 2.5   1.8 NE | 40 3.6   1.5 NE | 48 0.00 34.1   0.8 45.3   1.4 0.00 50.0   7.4 50.8   4.8 4.1   0.0
Incline Village (Fairview Blvd) 5/7/26 0220 52.2   6.0 73   11 43.8   2.2 0.0   0.0 N | 0 0.0   0.0 NE | 42 0.00 26.9   0.9 50.4   1.0 0.00 51.7   7.0 52.5   5.9 0.0   0.0
Incline Village (Diamond Peak) 5/7/26 0220 51.0 73 42.8 0.0 N | 0 0.0 NW | 311 0.00 9.8 47.1 0.00 50.6 51.6 1.5
Incline Village (Mill Creek) 5/7/26 0220 48.4   4.4 83   6 43.5   2.5 0.0   0.1 N | 0 0.0   1.1 ENE | 72 0.00 11.4   0.1 45.5   0.8 0.00 48.4   5.4 49.0   4.6 0.0   3.4
Incline Village (Lakeshore Blvd) 5/7/26 0220 44.2   3.4 89   8 41.2   1.1 0.8   0.1 NE | 37 2.0   0.5 NE | 38 0.00 34.3   0.8 52.9   2.8 0.00 44.0   4.0 45.3   4.1 2.5   0.1
Glenbrook 5/7/26 0220 44.8   3.8 92   3 42.7   2.8 0.0   0.2 N | 0 0.0   1.4 NE | 45 0.00 44.3   0.0 45.2   0.8 0.00 44.7   4.0 46.4   4.8 3.0   0.5
Zephyr Cove 5/7/26 0220 47.5   5.3 84   8 43.0   2.9 0.0   0.0 N | 0 0.0   0.0 N | 352 0.00 - 34.3   0.0 0.00 47.3   5.2 49.2   6.0 0.0   0.9
Kingsbury Grade 5/7/26 0220 44.7   4.6 90   4 41.9   3.5 1.3   0.5 NNE | 16 3.1   0.0 N | 10 0.00 8.7   1.9 53.1   3.4 0.00 44.6   5.2 46.0   4.8 3.2   0.7
South Daggett Pass (Ridge) 5/7/26 0220 50.1   6.9 75   14 42.4   2.3 2.2   0.0 W | 280 5.3   0.5 W | 275 0.00 6.8   0.1 47.6   1.8 0.00 49.6   6.7 51.3   6.6 5.6   0.5
Palomino Valley 5/7/26 0220 51.6   2.0 74   3 43.6   3.0 0.1   0.1 SW | 220 2.2   0.7 SW | 220 0.00 7.0   0.1 67.5   2.6 0.00 50.7   1.4 57.0   1.4 7.0   0.7
East Cold Springs 5/7/26 0220 56.9   6.5 59   16 42.6   0.1 7.9   4.8 WSW | 256 11.6   5.6 WSW | 255 0.00 1.8   0.1 58.5   1.9 0.00 55.0   4.8 57.9   0.2 12.3   8.1
Peavine 5/7/26 0220 56.6   2.0 53   1 39.7   1.2 0.7   4.8 SE | 146 5.0   6.7 SSW | 199 0.00 - 53.4   0.0 0.00 55.6   1.3 60.5   3.6 6.7   7.7
West Verdi Peak 5/7/26 0220 57.2   11.2 55   24 41.1   1.4 2.4   0.5 SW | 216 6.6   3.4 SW | 216 0.00 21.9   0.6 54.3   2.2 0.00 55.6   10.1 57.6   7.0 9.6   3.2
West Verdi 5/7/26 0220 55.4   4.4 65   3 44.1   3.0 0.7   0.9 WNW | 283 2.6   1.6 WNW | 299 0.00 8.2   0.1 63.5   3.4 0.00 55.1   5.1 58.3   4.8 3.7   1.7
South Verdi 5/7/26 0220 59.8   6.3 54   11 43.3   1.4 15.5   0.9 WSW | 248 18.5   0.5 WSW | 248 0.00 16.9   0.0 61.7   4.6 0.00 58.7   7.3 60.1   3.2 22.0   0.1
Northwest Reno 5/7/26 0220 63.2   6.1 46   9 42.2   1.0 11.2   5.1 WNW | 298 14.5   5.7 WNW | 284 0.00 23.9   0.3 64.6   3.7 0.00 62.4   5.7 64.2   2.8 18.4   0.5
North Lawton 5/7/26 0220 58.6   2.7 57   1 43.5   2.0 9.6   0.6 W | 263 12.7   4.2 W | 262 0.00 - 39.1   0.0 0.00 58.4   3.9 61.3   3.8 16.0   0.9
West Reno (Mogul) 5/7/26 0220 57.6   1.3 60   2 44.0   2.0 6.7   2.0 WNW | 298 8.9   1.0 WNW | 295 0.00 37.8   0.4 61.1   1.1 0.00 57.3   2.0 60.1   0.8 10.7   1.0
Caughlin (Hunter Lake Trail) 9/16/25 0800 59.7   3.5 41   11 35.9   2.7 0.0   0.0 N | 0 0.0   0.0 ENE | 66 0.00 15.7   0.0 69.8   0.5 0.00 55.7   3.2 67.7   9.1 9.4   0.9
ArrowCreek 5/7/26 0220 56.2   2.8 57   5 41.0   0.4 4.6   0.6 S | 187 9.7   2.0 WSW | 255 0.00 - 32.0   0.0 0.00 55.1   2.1 61.3   4.0 9.7   1.9
Tracy 5/7/26 0220 60.9   4.7 49   14 41.6   2.1 8.7   4.9 WSW | 246 11.7   6.5 WSW | 248 0.00 8.1   0.2 65.6   3.3 0.00 60.8   5.6 63.2   5.8 11.7   3.6
Virginia Highlands 5/7/26 0220 59.0   6.3 53   9 41.9   2.0 3.1   0.5 W | 278 4.1   2.9 W | 280 0.00 8.5   0.3 56.1   0.9 0.00 58.9   6.4 60.2   6.0 5.0   4.2
Virginia City 5/7/26 0220 57.7   3.0 45   7 36.5   1.1 1.5   11.1 SSE | 148 3.6   16.0 SSE | 147 0.00 8.4   0.2 56.7   3.4 0.00 57.0   7.6 60.3   5.4 9.2   12.9
Six Mile Canyon 9/9/25 0630 60.2   9.6 37   6 33.7   4.8 4.1   2.5 W | 277 6.1   2.9 WNW | 286 0.00 12.5   0.0 75.5   0.7 0.00 57.9   7.6 64.4   1.9 7.0   3.9
Mt Rose Highway 4/30/26 0510 40.8   4.7 47   13 22.3   1.3 2.3   0.2 WSW | 243 4.8   2.1 WSW | 246 0.00 24.1   0.3 43.0   0.8 0.00 40.5   4.7 43.0   5.3 7.7   0.4
Pleasant Valley 5/7/26 0220 52.6   2.5 66   10 41.4   1.3 0.2   4.0 SE | 143 1.7   4.1 SE | 144 0.00 2.8   0.0 62.7   3.3 0.00 52.2   2.8 55.4   2.9 5.8   1.4
New Washoe City 5/7/26 0220 51.6   3.7 61   18 38.4   3.1 6.2   2.8 NE | 41 9.3   1.7 NE | 42 0.00 4.5   0.1 60.1   2.5 0.00 51.2   3.5 53.9   3.5 9.3   1.2
Franktown Creek 5/7/26 0220 50.5   2.2 70   7 41.2   0.2 0.0   1.6 N | 0 0.0   4.0 NW | 310 0.00 11.2   0.0 56.0   1.8 0.00 49.7   2.7 52.4   3.9 3.2   1.1
Musgrove Creek 5/7/26 0220 56.5   5.9 59   3 42.3   4.3 0.9   0.2 SSW | 194 2.5   0.2 SW | 233 0.00 45.1   0.0 52.9   0.7 0.00 56.1   5.9 60.6   8.2 6.5   3.0
East Carson 11/23/24 0110 28.6   28.4 - - 4.7   11.0 SW | 220 14.7   10.1 SW | 219 0.02 - 50.9   0.1 0.02 -25.9   79.1 42.9   14.6 16.0   10.7
Kings Canyon 5/7/26 0220 50.9   3.0 61   11 38.0   1.4 3.1   0.4 SSW | 192 4.8   1.1 SSE | 158 0.00 15.1   0.1 59.9   1.9 0.00 49.0   1.5 52.7   1.1 6.7   1.1
Carson City (Voltaire Canyon) 5/7/26 0220 60.3   6.6 44   19 38.6   3.0 5.9   2.3 SSW | 213 8.4   1.6 SSW | 208 0.00 2.8   0.0 60.4   0.8 0.00 59.2   7.6 61.3   6.8 12.7   3.2
Jacks Valley 5/7/26 0220 53.1   5.0 55   20 37.5   3.1 1.0   1.0 ENE | 68 3.2   0.5 NW | 317 0.00 13.9   0.1 64.3   5.4 0.00 52.5   5.1 56.3   5.0 4.3   1.7
Genoa 5/7/26 0220 53.9   4.3 59   18 39.9   3.0 0.3   0.3 SSW | 201 2.7   2.7 SSW | 204 0.00 8.9   1.4 57.6   5.3 0.00 53.3   4.6 54.3   4.0 2.7   1.0
South Genoa (Walleys Hot Springs) 5/7/26 0220 52.4   0.6 65   5 41.1   1.3 4.9   4.9 N | 349 6.0   6.0 NNW | 345 0.00 13.9   0.7 62.8   2.4 0.00 49.8   1.2 57.2   3.6 9.9   2.9
SW Gardnerville (HWY 88) 5/7/26 0220 48.5   3.5 72   11 40.0   0.1 3.2   3.2 NNW | 342 6.0   4.6 N | 354 0.00 3.5   0.0 58.4   3.4 0.00 47.2   3.1 51.8   0.2 6.1   4.1
Sheridan 5/7/26 0220 52.9   2.8 57   13 38.2   2.7 4.7   0.3 W | 276 6.2   0.4 W | 270 0.00 5.5   0.7 61.2   3.4 0.00 51.3   2.9 55.8   3.5 6.2   0.6
Ruhenstroth 5/7/26 0220 53.6   3.8 52   17 36.5   3.5 1.8   1.0 WSW | 248 4.0   1.2 SW | 232 0.00 12.7   0.0 60.8   3.6 0.00 52.0   3.7 55.9   3.7 8.7   3.5
Double Spring 5/7/26 0220 41.5   0.1 78   6 35.2   2.0 1.5   1.5 NNW | 338 3.0   3.0 NNW | 334 0.00 31.0   0.7 57.2   3.8 0.00 40.6   0.5 45.8   0.8 3.0   1.2
North Topaz Lake 5/7/26 0220 56.1   5.6 44   19 34.4   4.1 2.2   5.6 WSW | 254 3.6   6.1 WSW | 255 0.00 9.2   0.3 57.0   4.4 0.00 54.8   5.8 60.2   7.4 5.3   4.6
Wild Oat Mountain 5/7/26 0220 56.1   6.9 44   20 34.6   2.9 3.0   1.2 NE | 50 3.7   0.4 NE | 53 0.00 16.8   0.2 60.3   3.2 0.00 56.0   7.9 58.7   8.6 4.3   1.6
Smith Valley 5/7/26 0220 55.0   7.0 54   22 38.7   2.2 2.9   2.1 NW | 322 5.1   2.7 NW | 317 0.00 5.8   0.0 63.3   2.4 0.00 53.9   6.0 57.5   6.6 7.5   0.6
Pine Grove Mountain 5/7/26 0220 51.6   5.5 39   18 27.3   4.6 5.7   1.6 SE | 146 7.8   0.9 SSE | 149 0.00 22.5   1.1 51.3   5.4 0.00 51.4   6.5 53.9   7.3 8.6   3.4
Paradise Hill 5/7/26 0220 54.4   1.4 34   10 26.7   4.9 0.4   4.6 W | 268 2.7   4.8 W | 273 0.00 8.0   0.0 62.8   1.6 0.00 50.0   0.7 55.3   1.2 4.8   3.1
Winnemucca 5/7/26 0220 55.8   6.5 32   26 26.2   8.7 6.9   3.1 SSW | 196 9.7   4.5 SSW | 199 0.00 6.0   0.0 62.0   2.5 0.00 55.4   7.8 56.7   3.9 11.0   2.7
NE Elko 5/7/26 0220 39.4   2.4 58   30 25.8   12.5 0.1   0.2 NNW | 334 2.0   0.4 NW | 324 0.00 12.5   0.1 60.4   3.1 0.00 37.9   3.8 41.8   3.1 5.8   8.7
North Elko 5/7/26 0220 54.9   9.6 37   38 28.9   9.0 8.0   2.8 W | 269 10.1   2.5 W | 266 0.00 28.3   0.1 57.2   2.4 0.00 53.2   10.1 55.3   7.2 10.1   2.5
South Elko 5/7/26 0220 77.5   29.7 51   32 57.8   15.1 8.0   3.8 SE | 126 9.4   3.7 ESE | 117 0.00 18.4   0.0 57.8   3.7 0.00 60.3   14.6 108.0   35.2 10.7   4.1
Lamoille 1/28/26 1720 33.2   0.5 65   17 22.8   6.3 5.8   1.5 SSE | 166 7.7   1.9 SE | 139 0.00 12.2   0.0 33.4   0.1 0.02 23.5   2.0 36.5   5.9 25.6   17.4
Reid Gardner Sub 5/6/26 1130 73.4   2.5 26   2 36.5   0.4 2.6   2.7 SSW | 196 7.6   4.5 SW | 218 0.00 24.0   0.1 70.1   0.4 0.00 50.0   4.6 74.0   1.7 7.6   7.8
Corn Creek 5/7/26 0220 69.5   8.8 25   8 32.6   0.9 1.2   5.3 WSW | 254 2.6   6.1 WSW | 258 0.00 3.9   0.0 76.4   2.8 0.00 67.2   7.8 70.4   8.9 7.5   1.2
Lucky Strike 5/7/26 0220 62.1   6.1 25   13 25.9   5.1 8.7   3.3 S | 174 13.2   5.2 S | 180 0.00 4.5   0.1 69.6   2.9 0.00 60.9   5.5 62.9   6.6 13.2   9.4
Lower Angel Peak 5/7/26 0220 50.6   2.2 43   8 28.9   2.2 4.6   3.0 S | 170 7.5   1.7 SSE | 160 0.00 10.2   0.0 56.8   1.8 0.00 49.9   5.4 53.3   4.5 7.5   0.2
Angel Peak 5/7/26 0220 48.1   10.9 36   34 22.5   5.8 1.9   7.1 WNW | 299 6.6   15.6 W | 274 0.00 3.5   0.0 51.6   4.9 0.00 46.7   9.6 48.5   10.2 9.9   21.2
Upper Kyle Canyon 5/7/26 0220 46.1   2.8 41   15 23.6   5.1 4.1   3.4 NNW | 338 6.5   3.7 NNW | 339 0.00 13.6   0.1 57.1   3.2 0.00 45.6   3.2 48.2   3.8 7.0   5.8
Mt Charleston 5/7/26 0220 48.4   7.2 41   20 25.8   2.9 2.8   1.8 WSW | 247 6.2   2.7 WSW | 256 0.00 18.2   0.0 49.1   0.5 0.00 47.8   6.9 50.0   4.1 7.5   4.1
Mid Kyle Canyon 5/7/26 0220 50.4   5.5 39   17 26.6   3.5 9.9   3.6 NW | 305 13.8   4.7 NW | 304 0.00 7.0   0.0 59.8   2.4 0.00 49.9   5.9 51.8   3.5 15.5   4.6
Blue Diamond 5/7/26 0320 60.6   0.6 34   2 31.8   0.9 1.5   6.8 W | 273 4.5   9.9 W | 278 0.00 3.1   0.5 71.2   1.8 0.00 59.9   0.9 63.6   1.1 9.3   9.3
Artesian Sub 5/7/26 0220 74.6   6.8 15   17 24.1   12.6 0.3   2.1 N | 5 3.2   3.0 NE | 47 0.00 13.2   0.1 74.3   0.3 0.00 74.2   6.5 75.4   6.1 3.2   6.2
North Henderson 5/7/26 0220 73.8   4.0 26   4 36.4   0.3 4.6   2.3 SW | 235 6.0   6.2 SW | 229 0.00 8.8   0.2 79.7   0.7 0.00 73.0   3.3 76.8   5.5 6.0   8.6
Sandy Valley 5/7/26 0220 71.9   14.0 28   15 37.3   1.4 5.5   1.8 ESE | 106 7.5   0.5 ESE | 106 0.00 4.5   0.0 80.6   2.8 0.00 64.2   6.7 72.3   11.8 8.9   0.9
Searchlight 5/7/26 0220 60.2   7.3 35   17 32.3   3.5 5.4   2.7 N | 10 7.6   3.6 NNE | 21 0.00 4.7   0.0 76.3   4.2 0.00 58.5   6.2 68.0   12.5 10.1   6.1
Laughlin 5/7/26 0220 78.0   9.3 25   11 39.1   1.6 1.7   2.8 NNE | 28 2.5   4.6 N | 11 0.00 4.1   0.0 83.8   0.6 0.00 76.6   8.3 80.9   10.5 5.1   2.7
31Mission Hills 5/7/26 0220 72.7   10.2 18   13 26.6   4.6 2.8   7.3 ENE | 67 4.8   7.9 ENE | 78 0.00 3.7   0.1 79.8   3.8 0.00 71.9   9.6 74.8   10.2 8.2   6.0
32 Enterprise Sierra Cliffs 5/7/26 0220 69.3   6.6 22   8 28.6   2.0 10.1   0.2 W | 262 11.4   1.4 WSW | 258 0.00 2.2   0.0 73.8   4.2 0.00 67.3   4.7 72.2   8.0 14.3   1.5
Max     78.0 95 57.8 15.5 - 18.5 - 0.00 45.1 83.8 0.03 76.6 108.0 22.0
Avg     55.5 54 37.0 3.6 - 5.7 - 0.00 13.3 58.8 - - - -
Min     39.4 15 22.5 0.0 - 0.0 - 0.00 1.8 32.0 0.00 37.9 41.8 0.0